Wetterdaten: aktuell Dienstag, 15.10.2019 23:05
Datum Zeit Temp. A. Feuchte A. Regen Windböen
15.10.2019 23:05 11,1 °C 90 % 1,8 l/m² 19,3 km/h (3 Bft)
15.10.2019 22:05 11,6 °C 90 % 2,0 l/m² 20,9 km/h (4 Bft)
15.10.2019 21:05 12,4 °C 89 % 0,7 l/m² 17,7 km/h (3 Bft)
15.10.2019 20:05 12,5 °C 88 % 1,8 l/m² 14,5 km/h (3 Bft)
15.10.2019 19:05 12,7 °C 90 % 0,9 l/m² 16,1 km/h (3 Bft)
15.10.2019 18:05 12,9 °C 89 % 1,1 l/m² 11,3 km/h (2 Bft)
15.10.2019 17:05 13,3 °C 86 % 0,7 l/m² 9,7 km/h (2 Bft)
15.10.2019 16:05 13,8 °C 85 % 0,4 l/m² 6,4 km/h (2 Bft)
15.10.2019 15:05 14,4 °C 81 % 0,0 l/m² 11,3 km/h (2 Bft)
15.10.2019 14:05 15,9 °C 73 % 0,0 l/m² 20,9 km/h (4 Bft)
15.10.2019 13:05 16,4 °C 70 % 0,0 l/m² 20,9 km/h (4 Bft)
15.10.2019 12:05 17,6 °C 71 % 0,0 l/m² 17,7 km/h (3 Bft)
15.10.2019 11:05 17,2 °C 76 % 0,0 l/m² 16,1 km/h (3 Bft)
15.10.2019 10:05 14,7 °C 87 % 0,0 l/m² 3,2 km/h (1 Bft)
15.10.2019 09:05 13,4 °C 88 % 0,0 l/m² 0,0 km/h (0 Bft)
15.10.2019 08:05 12,3 °C 88 % 0,0 l/m² 0,0 km/h (0 Bft)
15.10.2019 07:05 11,6 °C 89 % 0,0 l/m² 0,0 km/h (0 Bft)
15.10.2019 06:05 12,2 °C 89 % 0,0 l/m² 0,0 km/h (0 Bft)
15.10.2019 05:05 12,1 °C 89 % 0,0 l/m² 4,8 km/h (1 Bft)
15.10.2019 04:05 12,5 °C 88 % 0,0 l/m² 0,0 km/h (0 Bft)
15.10.2019 03:05 13,2 °C 84 % 0,0 l/m² 0,0 km/h (0 Bft)
15.10.2019 02:05 14,2 °C 82 % 0,0 l/m² 0,0 km/h (0 Bft)
15.10.2019 01:05 15,1 °C 80 % 0,0 l/m² 1,6 km/h (1 Bft)
15.10.2019 00:05 18,7 °C 62 % 0,0 l/m² 11,3 km/h (2 Bft)
15.10.2019 00:00 18,6 °C 63 % 0,0 l/m² 9,7 km/h (2 Bft)
_ Min-Zeit 22:50 00:30 - 01:00
Minimum _ 11,1 °C 58 % - 0,0 km/h (0 Bft)
_ Max-Zeit 00:35 21:55 21:35 18:45
Maximum _ 19,4 °C 91 % 0,4 l/m² 29,0 km/h
S (5 Bft)
Durchschnitt _ 13,8 °C 84 % #9,2 l/m² 9,4 km/h (2 Bft)